createdAt,value
2018-06-09T00:01:12.007Z,6.17
2018-06-09T00:03:39.130Z,5.03
2018-06-09T00:06:06.347Z,5.60
2018-06-09T00:08:33.469Z,5.37
2018-06-09T00:11:00.605Z,3.50
2018-06-09T00:13:27.730Z,4.10
2018-06-09T00:15:54.828Z,5.63
2018-06-09T00:18:21.952Z,6.37
2018-06-09T00:20:49.119Z,5.60
2018-06-09T00:23:16.220Z,5.40
2018-06-09T00:25:43.368Z,4.53
2018-06-09T00:28:10.537Z,5.90
2018-06-09T00:30:37.642Z,5.33
2018-06-09T00:33:04.755Z,6.13
2018-06-09T00:35:31.983Z,6.27
2018-06-09T00:37:59.083Z,6.33
2018-06-09T00:40:26.192Z,4.33
2018-06-09T00:42:54.315Z,5.40
2018-06-09T00:45:21.388Z,6.10
2018-06-09T00:47:48.463Z,4.53
2018-06-09T00:50:15.582Z,4.23
2018-06-09T00:52:42.796Z,7.50
2018-06-09T00:55:09.908Z,4.17
2018-06-09T00:57:37.082Z,5.00
2018-06-09T01:00:04.246Z,5.63
2018-06-09T01:02:31.364Z,7.53
2018-06-09T01:04:58.502Z,7.17
2018-06-09T01:07:25.631Z,5.63
2018-06-09T01:09:52.822Z,6.33
2018-06-09T01:12:20.361Z,4.70
2018-06-09T01:14:47.465Z,5.90
2018-06-09T01:17:14.544Z,4.10
2018-06-09T01:19:41.756Z,6.03
2018-06-09T01:22:08.976Z,7.07
2018-06-09T01:24:36.071Z,6.90
2018-06-09T01:27:03.263Z,5.37
2018-06-09T01:29:30.364Z,8.77
2018-06-09T01:31:57.442Z,6.97
2018-06-09T01:34:24.617Z,8.07
2018-06-09T01:36:51.754Z,7.23
2018-06-09T01:39:18.843Z,6.33
2018-06-09T01:41:46.168Z,6.50
2018-06-09T01:44:13.373Z,7.93
2018-06-09T01:46:40.503Z,7.33
2018-06-09T01:49:07.689Z,5.53
2018-06-09T01:51:34.828Z,5.60
2018-06-09T01:54:01.992Z,7.17
2018-06-09T01:56:29.116Z,5.87
2018-06-09T01:58:56.242Z,7.13
2018-06-09T02:01:23.344Z,5.33
2018-06-09T02:03:50.509Z,4.73
2018-06-09T02:06:17.622Z,8.20
2018-06-09T02:08:44.866Z,5.27
2018-06-09T02:11:12.028Z,9.47
2018-06-09T02:13:39.152Z,5.87
2018-06-09T02:16:06.249Z,6.37
2018-06-09T02:18:33.460Z,7.20
2018-06-09T02:21:00.595Z,7.67
2018-06-09T02:23:27.672Z,5.50
2018-06-09T02:25:54.813Z,5.37
2018-06-09T02:28:21.932Z,6.67
2018-06-09T02:30:49.032Z,10.53
2018-06-09T02:33:16.157Z,5.00
2018-06-09T02:35:43.257Z,9.73
2018-06-09T02:38:10.354Z,6.07
2018-06-09T02:40:37.506Z,9.27
2018-06-09T02:43:04.868Z,7.17
2018-06-09T02:45:32.185Z,5.67
2018-06-09T02:47:59.363Z,8.27
2018-06-09T02:50:26.472Z,8.50
2018-06-09T02:52:53.599Z,7.57
2018-06-09T02:55:21.120Z,8.50
2018-06-09T02:57:48.242Z,6.67
2018-06-09T03:00:15.320Z,6.37
2018-06-09T03:02:42.482Z,10.23
2018-06-09T03:05:09.585Z,5.97
2018-06-09T03:07:36.699Z,6.57
2018-06-09T03:10:03.949Z,6.63
2018-06-09T03:12:31.063Z,9.40
2018-06-09T03:14:58.110Z,7.83
2018-06-09T03:17:25.312Z,6.53
2018-06-09T03:19:52.451Z,8.43
2018-06-09T03:22:19.548Z,5.50
2018-06-09T03:24:46.722Z,7.23
2018-06-09T03:27:13.838Z,6.03
2018-06-09T03:29:40.925Z,9.43
2018-06-09T03:32:08.073Z,7.17
2018-06-09T03:34:35.201Z,8.40
2018-06-09T03:37:02.299Z,6.43
2018-06-09T03:39:29.415Z,5.13
2018-06-09T03:41:56.527Z,9.10
2018-06-09T03:44:23.608Z,6.80
2018-06-09T03:46:50.761Z,6.87
2018-06-09T03:49:17.845Z,5.60
2018-06-09T03:51:44.935Z,6.50
2018-06-09T03:54:12.087Z,7.33
2018-06-09T03:56:39.579Z,7.23
2018-06-09T03:59:06.694Z,6.93
2018-06-09T04:01:33.891Z,7.47
2018-06-09T04:04:01.743Z,6.57
2018-06-09T04:06:28.836Z,6.23
2018-06-09T04:08:56.021Z,5.77
2018-06-09T04:11:23.095Z,5.97
2018-06-09T04:13:50.188Z,7.83
2018-06-09T04:16:17.303Z,7.83
2018-06-09T04:18:44.411Z,7.33
2018-06-09T04:21:11.736Z,6.67
2018-06-09T04:23:38.890Z,5.73
2018-06-09T04:26:05.993Z,7.03
2018-06-09T04:28:33.138Z,5.07
2018-06-09T04:31:00.417Z,8.17
2018-06-09T04:33:27.551Z,8.40
2018-06-09T04:35:54.669Z,5.80
2018-06-09T04:38:21.835Z,6.37
2018-06-09T04:40:48.947Z,5.80
2018-06-09T04:43:16.047Z,7.73
2018-06-09T04:45:43.210Z,6.40
2018-06-09T04:48:10.704Z,5.90
2018-06-09T04:50:37.833Z,8.20
2018-06-09T04:53:05.062Z,6.97
2018-06-09T04:55:32.200Z,6.40
2018-06-09T04:57:59.422Z,5.87
2018-06-09T05:00:26.576Z,5.47
2018-06-09T05:02:53.691Z,6.83
2018-06-09T05:05:20.895Z,5.73
2018-06-09T05:07:48.081Z,8.33
2018-06-09T05:10:15.190Z,5.53
2018-06-09T05:12:42.357Z,5.50
2018-06-09T05:15:09.786Z,7.67
2018-06-09T05:17:36.888Z,9.27
2018-06-09T05:20:04.032Z,7.37
2018-06-09T05:22:31.222Z,7.40
2018-06-09T05:24:58.363Z,7.00
2018-06-09T05:27:25.618Z,9.20
2018-06-09T05:29:52.791Z,9.03
2018-06-09T05:32:19.944Z,8.93
2018-06-09T05:34:47.111Z,5.23
2018-06-09T05:37:14.284Z,6.47
2018-06-09T05:39:41.384Z,7.03
2018-06-09T05:42:08.553Z,6.87
2018-06-09T05:44:35.777Z,5.00
2018-06-09T05:47:03.600Z,6.47
2018-06-09T05:49:30.715Z,5.33
2018-06-09T05:51:57.875Z,4.47
2018-06-09T05:54:25.104Z,8.37
2018-06-09T05:56:52.267Z,5.73
2018-06-09T05:59:19.488Z,7.10
2018-06-09T06:01:46.683Z,5.53
2018-06-09T06:04:13.823Z,4.97
2018-06-09T06:06:41.477Z,7.07
2018-06-09T06:09:08.768Z,7.10
2018-06-09T06:11:35.891Z,6.77
2018-06-09T06:14:04.265Z,6.33
2018-06-09T06:16:31.712Z,8.20
2018-06-09T06:18:58.852Z,5.87
2018-06-09T06:21:26.017Z,6.20
2018-06-09T06:23:53.235Z,5.60
2018-06-09T06:26:20.721Z,5.67
2018-06-09T06:28:48.194Z,9.67
2018-06-09T06:31:15.354Z,9.33
2018-06-09T06:33:42.675Z,4.70
2018-06-09T06:36:09.908Z,7.57
2018-06-09T06:38:37.022Z,5.17
2018-06-09T06:41:04.117Z,6.07
2018-06-09T06:43:31.530Z,7.77
2018-06-09T06:45:58.727Z,7.67
2018-06-09T06:48:25.886Z,7.60
2018-06-09T06:50:53.648Z,8.27
2018-06-09T06:53:20.768Z,7.97
2018-06-09T06:55:47.976Z,8.03
2018-06-09T06:58:15.164Z,6.33
2018-06-09T07:00:42.376Z,6.00
2018-06-09T07:03:09.522Z,5.37
2018-06-09T07:05:36.812Z,8.97
2018-06-09T07:08:03.929Z,7.17
2018-06-09T07:10:31.031Z,7.03
2018-06-09T07:12:58.179Z,6.40
2018-06-09T07:15:25.284Z,5.53
2018-06-09T07:17:52.415Z,7.73
2018-06-09T07:20:19.551Z,7.13
2018-06-09T07:22:46.654Z,5.33
2018-06-09T07:25:14.923Z,7.63
2018-06-09T07:27:42.076Z,4.77
2018-06-09T07:30:09.375Z,4.97
2018-06-09T07:32:36.489Z,4.23
2018-06-09T07:35:03.927Z,5.80
2018-06-09T07:37:31.042Z,4.17
2018-06-09T07:39:58.154Z,5.50
2018-06-09T07:42:25.324Z,4.37
2018-06-09T07:44:52.425Z,4.47
2018-06-09T07:47:19.663Z,7.37
2018-06-09T07:49:47.043Z,6.43
2018-06-09T07:52:14.138Z,5.73
2018-06-09T07:54:41.328Z,8.10
2018-06-09T07:57:08.504Z,5.93
2018-06-09T07:59:35.677Z,5.03
2018-06-09T08:02:02.762Z,7.53
2018-06-09T08:04:29.954Z,5.27
2018-06-09T08:06:57.092Z,7.63
2018-06-09T08:09:24.173Z,5.10
2018-06-09T08:11:51.327Z,6.23
2018-06-09T08:14:18.479Z,4.67
2018-06-09T08:16:45.628Z,7.90
2018-06-09T08:19:12.824Z,3.70
2018-06-09T08:21:39.931Z,8.27
2018-06-09T08:24:07.124Z,4.60
2018-06-09T08:26:34.279Z,3.63
2018-06-09T08:29:01.421Z,8.40
2018-06-09T08:31:28.474Z,4.83
2018-06-09T08:33:56.601Z,3.37
2018-06-09T08:36:23.725Z,5.30
2018-06-09T08:38:51.411Z,4.00
2018-06-09T08:41:18.577Z,3.97
2018-06-09T08:43:45.728Z,5.63
2018-06-09T08:46:12.816Z,5.93
2018-06-09T08:48:39.957Z,6.67
2018-06-09T08:51:07.106Z,5.37
2018-06-09T08:53:34.311Z,5.30
2018-06-09T08:56:01.486Z,6.33
2018-06-09T08:58:28.616Z,4.33
2018-06-09T09:00:55.761Z,5.93
2018-06-09T09:03:22.885Z,5.40
2018-06-09T09:05:49.983Z,5.47
2018-06-09T09:08:17.062Z,3.77
2018-06-09T09:10:44.235Z,4.27
2018-06-09T09:13:11.611Z,4.50
2018-06-09T09:15:38.699Z,7.20
2018-06-09T09:18:05.877Z,5.90
2018-06-09T09:20:33.003Z,4.03
2018-06-09T09:23:00.126Z,5.60
2018-06-09T09:25:27.440Z,5.20
2018-06-09T09:27:54.585Z,5.37
2018-06-09T09:30:21.678Z,3.90
2018-06-09T09:32:48.842Z,4.97
2018-06-09T09:35:15.943Z,5.73
2018-06-09T09:37:43.025Z,6.20
2018-06-09T09:40:10.267Z,5.13
2018-06-09T09:42:37.424Z,4.90
2018-06-09T09:45:04.595Z,4.83
2018-06-09T09:47:31.814Z,5.50
2018-06-09T09:49:58.940Z,5.50
2018-06-09T09:52:29.454Z,3.90
2018-06-09T09:54:56.713Z,4.90
2018-06-09T09:57:23.892Z,4.37
2018-06-09T09:59:51.054Z,5.27
2018-06-09T10:02:18.264Z,5.43
2018-06-09T10:04:46.036Z,6.23
2018-06-09T10:07:13.173Z,4.60
2018-06-09T10:09:40.307Z,6.30
2018-06-09T10:12:08.278Z,4.40
2018-06-09T10:14:35.548Z,5.67
2018-06-09T10:17:02.909Z,5.10
2018-06-09T10:19:30.666Z,6.87
2018-06-09T10:21:57.899Z,3.83
2018-06-09T10:24:25.099Z,4.37
2018-06-09T10:26:52.215Z,5.95
2018-06-09T10:29:19.352Z,4.25
2018-06-09T10:31:47.170Z,6.65
2018-06-09T10:34:14.275Z,4.33
2018-06-09T10:36:42.000Z,5.22
2018-06-09T10:39:33.758Z,6.03
2018-06-09T10:42:01.002Z,4.08
2018-06-09T10:44:28.196Z,5.83
2018-06-09T10:46:56.766Z,3.90
2018-06-09T10:49:23.929Z,5.20
2018-06-09T10:51:51.076Z,5.92
2018-06-09T10:54:18.774Z,5.90
2018-06-09T10:56:45.888Z,5.20
2018-06-09T10:59:12.975Z,5.35
2018-06-09T11:01:40.203Z,4.40
2018-06-09T11:04:07.284Z,5.83
2018-06-09T11:06:34.493Z,6.65
2018-06-09T11:09:03.330Z,6.70
2018-06-09T11:11:30.437Z,4.15
2018-06-09T11:13:57.546Z,4.58
2018-06-09T11:16:24.696Z,8.25
2018-06-09T11:18:51.928Z,3.95
2018-06-09T11:21:19.076Z,4.00
2018-06-09T11:23:46.207Z,5.72
2018-06-09T11:26:13.280Z,4.30
2018-06-09T11:28:41.490Z,7.65
2018-06-09T11:31:08.730Z,5.42
2018-06-09T11:33:35.921Z,4.53
2018-06-09T11:36:03.063Z,7.10
2018-06-09T11:38:30.448Z,4.25
2018-06-09T11:40:57.569Z,5.42
2018-06-09T11:43:24.748Z,4.85
2018-06-09T11:45:53.007Z,4.25
2018-06-09T11:48:20.096Z,4.97
2018-06-09T11:50:47.253Z,4.17
2018-06-09T11:53:14.484Z,5.87
2018-06-09T11:55:41.751Z,4.55
2018-06-09T11:58:08.914Z,4.50
2018-06-09T12:00:36.097Z,4.95
2018-06-09T12:03:03.219Z,5.67
2018-06-09T12:05:30.346Z,5.92
2018-06-09T12:07:57.590Z,6.42
2018-06-09T12:10:24.794Z,4.42
2018-06-09T12:12:51.890Z,5.55
2018-06-09T12:15:19.092Z,4.22
2018-06-09T12:17:46.241Z,4.97
2018-06-09T12:20:13.418Z,4.85
2018-06-09T12:22:41.502Z,4.50
2018-06-09T12:25:08.616Z,5.22
2018-06-09T12:27:35.788Z,5.80
2018-06-09T12:30:03.000Z,4.33
2018-06-09T12:32:31.065Z,5.10
2018-06-09T12:34:58.834Z,6.40
2018-06-09T12:37:25.968Z,7.12
2018-06-09T12:39:53.069Z,5.83
2018-06-09T12:42:20.200Z,6.80
2018-06-09T12:44:47.375Z,4.17
2018-06-09T12:47:14.472Z,4.22
2018-06-09T12:49:41.582Z,4.33
2018-06-09T12:52:08.710Z,5.62
2018-06-09T12:54:35.818Z,4.40
2018-06-09T12:57:03.302Z,5.15
2018-06-09T12:59:30.488Z,8.45
2018-06-09T13:01:57.696Z,6.00
2018-06-09T13:04:24.796Z,4.57
2018-06-09T13:06:51.946Z,5.40
2018-06-09T13:09:19.053Z,4.97
2018-06-09T13:11:46.155Z,6.27
2018-06-09T13:14:13.275Z,4.55
2018-06-09T13:16:40.359Z,5.37
2018-06-09T13:19:07.460Z,5.55
2018-06-09T13:21:34.707Z,4.20
2018-06-09T13:24:01.866Z,4.62
2018-06-09T13:26:28.971Z,5.93
2018-06-09T13:28:56.142Z,5.93
2018-06-09T13:31:24.178Z,5.83
2018-06-09T13:33:51.579Z,5.10
2018-06-09T13:36:18.827Z,5.67
2018-06-09T13:38:45.920Z,7.47
2018-06-09T13:41:13.004Z,4.80
2018-06-09T13:43:40.177Z,7.53
2018-06-09T13:46:07.373Z,5.83
2018-06-09T13:48:35.500Z,5.90
2018-06-09T13:51:02.626Z,4.80
2018-06-09T13:53:29.736Z,5.42
2018-06-09T13:55:56.840Z,5.80
2018-06-09T13:58:23.975Z,6.53
2018-06-09T14:00:51.400Z,4.65
2018-06-09T14:03:18.515Z,5.60
2018-06-09T14:05:45.681Z,5.72
2018-06-09T14:08:12.779Z,6.95
2018-06-09T14:10:39.886Z,6.03
2018-06-09T14:34:49.680Z,5.50
2018-06-09T14:37:16.852Z,5.80
2018-06-09T14:39:43.976Z,6.60
2018-06-09T14:42:11.117Z,6.10
2018-06-09T14:44:38.968Z,6.10
2018-06-09T14:47:06.118Z,6.17
2018-06-09T14:49:33.267Z,7.23
2018-06-09T14:52:00.940Z,5.45
2018-06-09T14:54:28.052Z,4.87
2018-06-09T14:56:55.220Z,4.60
2018-06-09T14:59:22.332Z,6.35
2018-06-09T15:01:49.437Z,5.10
2018-06-09T15:04:16.617Z,5.30
2018-06-09T15:06:43.871Z,4.97
2018-06-09T15:09:10.994Z,7.92
2018-06-09T15:11:38.132Z,5.95
2018-06-09T15:14:05.258Z,4.87
2018-06-09T15:16:32.399Z,4.87
2018-06-09T15:18:59.652Z,5.30
2018-06-09T15:21:26.784Z,4.90
2018-06-09T15:23:53.879Z,5.03
2018-06-09T15:26:21.019Z,4.67
2018-06-09T15:28:48.110Z,8.00
2018-06-09T15:31:15.296Z,4.47
2018-06-09T15:33:42.496Z,5.22
2018-06-09T15:36:09.898Z,5.08
2018-06-09T15:38:37.158Z,6.22
2018-06-09T15:41:04.392Z,5.55
2018-06-09T15:43:31.504Z,6.67
2018-06-09T15:45:58.586Z,6.20
2018-06-09T15:48:25.812Z,5.25
2018-06-09T15:50:53.218Z,6.45
2018-06-09T15:53:20.316Z,5.85
2018-06-09T15:55:47.465Z,4.58
2018-06-09T15:58:14.539Z,4.28
2018-06-09T16:00:41.613Z,4.22
2018-06-09T16:03:08.781Z,5.87
2018-06-09T16:05:36.289Z,5.17
2018-06-09T16:08:04.027Z,5.15
2018-06-09T16:10:31.155Z,5.35
2018-06-09T16:12:58.246Z,5.17
2018-06-09T16:15:25.578Z,5.05
2018-06-09T16:17:52.703Z,5.00
2018-06-09T16:20:20.633Z,4.60
2018-06-09T16:22:47.731Z,6.37
2018-06-09T16:25:14.876Z,4.60
2018-06-09T16:27:41.984Z,8.45
2018-06-09T16:30:09.073Z,6.42
2018-06-09T16:32:36.269Z,6.15
2018-06-09T16:35:03.367Z,4.83
2018-06-09T16:37:30.473Z,6.72
2018-06-09T16:39:57.744Z,5.07
2018-06-09T16:42:24.818Z,5.50
2018-06-09T16:44:51.928Z,6.40
2018-06-09T16:47:19.153Z,5.50
2018-06-09T16:49:46.225Z,5.70
2018-06-09T16:52:13.330Z,4.57
2018-06-09T16:54:40.589Z,8.60
2018-06-09T16:57:07.716Z,4.57
2018-06-09T16:59:36.259Z,8.33
2018-06-09T17:02:03.429Z,5.07
2018-06-09T17:04:30.628Z,6.43
2018-06-09T17:06:57.764Z,5.77
2018-06-09T17:09:24.994Z,5.67
2018-06-09T17:11:52.180Z,5.37
2018-06-09T17:14:19.268Z,5.10
2018-06-09T17:16:46.450Z,6.10
2018-06-09T17:19:13.578Z,6.53
2018-06-09T17:21:40.782Z,5.10
2018-06-09T17:24:07.894Z,5.47
2018-06-09T17:26:35.233Z,5.70
2018-06-09T17:29:02.339Z,6.67
2018-06-09T17:31:29.997Z,4.87
2018-06-09T17:33:57.127Z,5.47
2018-06-09T17:36:25.039Z,6.00
2018-06-09T17:38:52.628Z,8.07
2018-06-09T17:41:19.870Z,10.90
2018-06-09T17:43:46.951Z,7.80
2018-06-09T17:46:14.091Z,8.27
2018-06-09T17:48:41.336Z,10.30
2018-06-09T17:51:08.501Z,8.77
2018-06-09T17:53:36.383Z,7.63
2018-06-09T17:56:04.007Z,8.57
2018-06-09T17:58:31.145Z,7.90
2018-06-09T18:00:58.304Z,9.17
2018-06-09T18:03:25.483Z,9.30
2018-06-09T18:05:52.592Z,9.93
2018-06-09T18:08:19.756Z,6.97
2018-06-09T18:10:46.840Z,7.80
2018-06-09T18:13:15.059Z,8.30
2018-06-09T18:15:42.186Z,10.27
2018-06-09T18:18:09.367Z,10.03
2018-06-09T18:20:36.493Z,8.53
2018-06-09T18:23:03.770Z,9.37
2018-06-09T18:25:30.838Z,8.10
2018-06-09T18:27:57.987Z,9.70
2018-06-09T18:30:25.144Z,10.63
2018-06-09T18:32:52.215Z,11.30
2018-06-09T18:35:19.292Z,8.80
2018-06-09T18:37:46.461Z,8.37
2018-06-09T18:40:13.544Z,8.77
2018-06-09T18:42:40.757Z,9.33
2018-06-09T18:45:07.950Z,10.43
2018-06-09T18:47:35.097Z,9.40
2018-06-09T18:50:02.810Z,8.77
2018-06-09T18:52:29.967Z,8.87
2018-06-09T18:54:57.209Z,12.80
2018-06-09T18:57:24.308Z,8.60
2018-06-09T18:59:51.477Z,10.07
2018-06-09T19:02:18.588Z,10.17
2018-06-09T19:04:45.738Z,9.13
2018-06-09T19:07:12.966Z,10.07
2018-06-09T19:09:40.041Z,9.27
2018-06-09T19:12:07.131Z,9.63
2018-06-09T19:14:34.614Z,9.27
2018-06-09T19:17:01.725Z,9.57
2018-06-09T19:19:28.983Z,9.80
2018-06-09T19:21:56.188Z,9.70
2018-06-09T19:24:23.251Z,8.83
2018-06-09T19:26:50.372Z,8.83
2018-06-09T19:29:22.867Z,10.47
2018-06-09T19:31:53.108Z,9.47
2018-06-09T19:34:24.430Z,9.20
2018-06-09T19:36:55.480Z,9.70
2018-06-09T19:39:22.620Z,9.67
2018-06-09T19:41:54.521Z,9.03
2018-06-09T19:44:27.350Z,9.73
2018-06-09T19:46:56.838Z,10.00
2018-06-09T19:49:26.466Z,9.53
2018-06-09T19:51:55.926Z,9.83
2018-06-09T19:54:22.992Z,9.87
2018-06-09T19:56:55.777Z,9.73
2018-06-09T19:59:27.604Z,9.57
2018-06-09T20:01:54.725Z,9.07
2018-06-09T20:04:22.068Z,10.90
2018-06-09T20:06:49.616Z,11.17
2018-06-09T20:09:16.707Z,10.97
2018-06-09T20:11:46.771Z,10.20
2018-06-09T20:14:14.012Z,10.40
2018-06-09T20:16:41.314Z,10.67
2018-06-09T20:19:10.363Z,11.27
2018-06-09T20:21:37.487Z,12.50
2018-06-09T20:24:04.584Z,13.27
2018-06-09T20:26:31.692Z,13.23
2018-06-09T20:28:58.813Z,13.57
2018-06-09T20:31:25.919Z,14.17
2018-06-09T20:33:53.016Z,13.03
2018-06-09T20:36:20.232Z,13.90
2018-06-09T20:38:47.344Z,13.80
2018-06-09T20:41:14.436Z,13.90
2018-06-09T20:43:41.550Z,13.93
2018-06-09T20:46:08.679Z,13.63
2018-06-09T20:48:35.779Z,13.63
2018-06-09T20:51:03.001Z,14.13
2018-06-09T20:53:30.115Z,14.67
2018-06-09T20:55:57.191Z,16.23
2018-06-09T20:58:24.356Z,15.73
2018-06-09T21:00:51.441Z,15.43
2018-06-09T21:03:18.588Z,15.40
2018-06-09T21:05:45.766Z,16.10
2018-06-09T21:08:12.838Z,15.70
2018-06-09T21:10:39.918Z,16.13
2018-06-09T21:13:07.041Z,14.47
2018-06-09T21:15:34.133Z,15.90
2018-06-09T21:18:01.256Z,14.80
2018-06-09T21:20:28.400Z,14.67
2018-06-09T21:22:55.480Z,15.63
2018-06-09T21:25:22.582Z,14.77
2018-06-09T21:27:55.504Z,15.40
2018-06-09T21:30:28.369Z,14.97
2018-06-09T21:33:01.108Z,15.63
2018-06-09T21:35:44.946Z,16.70
2018-06-09T21:38:15.980Z,15.73
2018-06-09T21:40:47.031Z,14.63
2018-06-09T21:43:19.779Z,15.40
2018-06-09T21:45:49.903Z,15.17
2018-06-09T21:48:18.067Z,15.63
2018-06-09T21:50:45.223Z,16.37
2018-06-09T21:53:12.333Z,14.87
2018-06-09T21:55:39.692Z,14.93
2018-06-09T21:58:06.830Z,15.40
2018-06-09T22:00:33.908Z,15.07
2018-06-09T22:03:00.978Z,16.07
2018-06-09T22:05:28.175Z,18.40
2018-06-09T22:07:55.247Z,15.93
2018-06-09T22:10:22.355Z,19.43
2018-06-09T22:12:49.485Z,23.20
2018-06-09T22:15:16.548Z,23.10
2018-06-09T22:17:43.659Z,18.00
2018-06-09T22:20:10.787Z,18.20
2018-06-09T22:22:37.849Z,17.40
2018-06-09T22:25:04.950Z,17.73
2018-06-09T22:27:32.112Z,17.23
2018-06-09T22:29:59.468Z,17.17
2018-06-09T22:32:26.560Z,18.53
2018-06-09T22:34:53.693Z,17.03
2018-06-09T22:37:20.834Z,16.87
2018-06-09T22:39:47.883Z,17.57
2018-06-09T22:42:15.585Z,18.00
2018-06-09T22:44:42.663Z,18.43
2018-06-09T22:47:09.740Z,17.27
2018-06-09T22:49:36.862Z,17.97
2018-06-09T22:52:03.974Z,18.13
2018-06-09T22:54:31.085Z,17.43
2018-06-09T22:56:58.223Z,17.73
2018-06-09T22:59:25.280Z,17.13
2018-06-09T23:01:52.381Z,17.43
2018-06-09T23:04:19.514Z,17.27
2018-06-09T23:06:46.639Z,17.50
2018-06-09T23:09:13.722Z,17.53
2018-06-09T23:11:40.848Z,16.10
2018-06-09T23:14:07.944Z,15.33
2018-06-09T23:16:35.023Z,16.17
2018-06-09T23:19:02.163Z,21.57
2018-06-09T23:21:29.231Z,19.70
2018-06-09T23:23:56.329Z,18.53
2018-06-09T23:26:23.452Z,17.97
2018-06-09T23:28:50.523Z,18.20
2018-06-09T23:31:17.592Z,19.83
2018-06-09T23:33:44.700Z,18.40
2018-06-09T23:36:11.764Z,18.27
2018-06-09T23:38:38.826Z,18.93
2018-06-09T23:41:05.964Z,17.13
2018-06-09T23:43:33.104Z,18.47
2018-06-09T23:46:00.200Z,17.57
2018-06-09T23:48:27.317Z,17.70
2018-06-09T23:50:54.366Z,17.37
2018-06-09T23:53:21.428Z,17.40
2018-06-09T23:55:48.552Z,18.23
2018-06-09T23:58:15.656Z,18.10
